WAT6632 RJGG-RJCH
Flight info
| Callsign | WAT6632 |
|---|---|
| Flight time | 1h 11m |
| Altitude | 33000 |
| Route | KCC KROBE Y13 AKITA Y131 HINAI Y113 TAXIR |
| Aircraft | A320/M-SDE3FGHIRWY/LB1 |
Departure
| Time | 2026-04-28 06:14 |
|---|---|
| Airport | Chubu Centrair International Airport (RJGG) |
Arrival
| Time | 2026-04-28 07:25 |
|---|---|
| Airport | Hakodate Airport (RJCH) |
| Time | Latitude | Longitude | Altitude | Speed | Heading |
|---|---|---|---|---|---|
| 2026-04-28 05:53 | 34.86433 | 136.80960 | 8 ft | 0 kts | 79° |
| 2026-04-28 06:05 | 34.86430 | 136.80945 | 8 ft | 2 kts | 79° |
| 2026-04-28 06:05 | 34.86427 | 136.80927 | 8 ft | 2 kts | 79° |
| 2026-04-28 06:05 | 34.86424 | 136.80908 | 8 ft | 2 kts | 79° |
| 2026-04-28 06:05 | 34.86422 | 136.80891 | 8 ft | 2 kts | 79° |
| 2026-04-28 06:06 | 34.86420 | 136.80879 | 8 ft | 2 kts | 69° |
| 2026-04-28 06:06 | 34.86410 | 136.80865 | 8 ft | 2 kts | 30° |
| 2026-04-28 06:06 | 34.86396 | 136.80859 | 8 ft | 1 kts | 357° |
| 2026-04-28 06:06 | 34.86389 | 136.80861 | 8 ft | 1 kts | 343° |
| 2026-04-28 06:07 | 34.86386 | 136.80862 | 8 ft | 0 kts | 347° |
| 2026-04-28 06:08 | 34.86387 | 136.80862 | 8 ft | 0 kts | 347° |
| 2026-04-28 06:09 | 34.86401 | 136.80858 | 8 ft | 3 kts | 348° |
| 2026-04-28 06:09 | 34.86429 | 136.80852 | 8 ft | 5 kts | 349° |
| 2026-04-28 06:09 | 34.86469 | 136.80843 | 8 ft | 6 kts | 350° |
| 2026-04-28 06:09 | 34.86522 | 136.80830 | 8 ft | 8 kts | 350° |
| 2026-04-28 06:10 | 34.86586 | 136.80817 | 8 ft | 10 kts | 348° |
| 2026-04-28 06:10 | 34.86659 | 136.80798 | 8 ft | 11 kts | 348° |
| 2026-04-28 06:10 | 34.86743 | 136.80778 | 8 ft | 12 kts | 348° |
| 2026-04-28 06:10 | 34.86833 | 136.80756 | 8 ft | 13 kts | 348° |
| 2026-04-28 06:11 | 34.86930 | 136.80733 | 8 ft | 14 kts | 349° |
| 2026-04-28 06:11 | 34.87035 | 136.80707 | 8 ft | 15 kts | 349° |
| 2026-04-28 06:11 | 34.87144 | 136.80681 | 8 ft | 16 kts | 349° |
| 2026-04-28 06:11 | 34.87258 | 136.80653 | 8 ft | 16 kts | 349° |
| 2026-04-28 06:12 | 34.87374 | 136.80626 | 8 ft | 13 kts | 349° |
| 2026-04-28 06:12 | 34.87439 | 136.80574 | 8 ft | 12 kts | 278° |
| 2026-04-28 06:12 | 34.87425 | 136.80467 | 8 ft | 13 kts | 259° |
| 2026-04-28 06:12 | 34.87406 | 136.80353 | 8 ft | 14 kts | 259° |
| 2026-04-28 06:13 | 34.87386 | 136.80234 | 8 ft | 12 kts | 252° |
| 2026-04-28 06:13 | 34.87313 | 136.80186 | 8 ft | 13 kts | 174° |
| 2026-04-28 06:13 | 34.87153 | 136.80225 | 8 ft | 50 kts | 168° |
| 2026-04-28 06:13 | 34.86592 | 136.80359 | 9 ft | 111 kts | 168° |
| 2026-04-28 06:14 | 34.85642 | 136.80589 | 33 ft | 159 kts | 167° |
| 2026-04-28 06:14 | 34.84547 | 136.80841 | 515 ft | 163 kts | 168° |
| 2026-04-28 06:14 | 34.83413 | 136.80920 | 1095 ft | 169 kts | 193° |
| 2026-04-28 06:14 | 34.82515 | 136.80034 | 1662 ft | 178 kts | 245° |
| 2026-04-28 06:15 | 34.82460 | 136.78513 | 2039 ft | 192 kts | 289° |
| 2026-04-28 06:15 | 34.83067 | 136.76994 | 2363 ft | 207 kts | 296° |
| 2026-04-28 06:15 | 34.83693 | 136.75357 | 2652 ft | 226 kts | 293° |
| 2026-04-28 06:15 | 34.84339 | 136.73498 | 2967 ft | 247 kts | 291° |
| 2026-04-28 06:16 | 34.85104 | 136.71555 | 3368 ft | 265 kts | 307° |
| 2026-04-28 06:16 | 34.86595 | 136.70201 | 3913 ft | 277 kts | 341° |
| 2026-04-28 06:16 | 34.88465 | 136.69730 | 4721 ft | 277 kts | 350° |
| 2026-04-28 06:16 | 34.90391 | 136.69330 | 5454 ft | 281 kts | 348° |
| 2026-04-28 06:17 | 34.92317 | 136.68901 | 6142 ft | 285 kts | 347° |
| 2026-04-28 06:17 | 34.94289 | 136.68620 | 6810 ft | 290 kts | 2° |
| 2026-04-28 06:17 | 34.96229 | 136.69264 | 7477 ft | 296 kts | 26° |
| 2026-04-28 06:18 | 34.99804 | 136.71878 | 8827 ft | 303 kts | 31° |
| 2026-04-28 06:18 | 35.01606 | 136.73231 | 9468 ft | 307 kts | 31° |
| 2026-04-28 06:18 | 35.03443 | 136.74597 | 10077 ft | 310 kts | 30° |
| 2026-04-28 06:18 | 35.05281 | 136.75952 | 10557 ft | 318 kts | 30° |
| 2026-04-28 06:19 | 35.07211 | 136.77368 | 10996 ft | 327 kts | 29° |
| 2026-04-28 06:19 | 35.09180 | 136.78813 | 11567 ft | 331 kts | 28° |
| 2026-04-28 06:19 | 35.11161 | 136.80264 | 12141 ft | 334 kts | 28° |
| 2026-04-28 06:19 | 35.13178 | 136.81741 | 12705 ft | 337 kts | 27° |
| 2026-04-28 06:20 | 35.15117 | 136.83154 | 13229 ft | 340 kts | 27° |
| 2026-04-28 06:20 | 35.17184 | 136.84662 | 13762 ft | 345 kts | 26° |
| 2026-04-28 06:20 | 35.19276 | 136.86191 | 14296 ft | 349 kts | 26° |
| 2026-04-28 06:20 | 35.21367 | 136.87718 | 14822 ft | 353 kts | 25° |
| 2026-04-28 06:21 | 35.23495 | 136.89270 | 15341 ft | 358 kts | 25° |
| 2026-04-28 06:21 | 35.25650 | 136.90840 | 15830 ft | 362 kts | 24° |
| 2026-04-28 06:21 | 35.27855 | 136.92294 | 16299 ft | 364 kts | 20° |
| 2026-04-28 06:21 | 35.30157 | 136.93684 | 16769 ft | 368 kts | 19° |
| 2026-04-28 06:22 | 35.32455 | 136.95047 | 17234 ft | 373 kts | 19° |
| 2026-04-28 06:22 | 35.34820 | 136.96451 | 17699 ft | 377 kts | 19° |
| 2026-04-28 06:22 | 35.37172 | 136.97849 | 18151 ft | 381 kts | 19° |
| 2026-04-28 06:22 | 35.39595 | 136.99293 | 18604 ft | 385 kts | 18° |
| 2026-04-28 06:23 | 35.42009 | 137.00735 | 19039 ft | 389 kts | 18° |
| 2026-04-28 06:23 | 35.44451 | 137.02199 | 19468 ft | 393 kts | 18° |
| 2026-04-28 06:23 | 35.46944 | 137.03693 | 19827 ft | 399 kts | 18° |
| 2026-04-28 06:23 | 35.49440 | 137.05188 | 20164 ft | 406 kts | 18° |
| 2026-04-28 06:24 | 35.52002 | 137.06728 | 20560 ft | 410 kts | 18° |
| 2026-04-28 06:24 | 35.54595 | 137.08287 | 20970 ft | 412 kts | 18° |
| 2026-04-28 06:24 | 35.57169 | 137.09839 | 21358 ft | 415 kts | 18° |
| 2026-04-28 06:24 | 35.59769 | 137.11403 | 21740 ft | 419 kts | 18° |
| 2026-04-28 06:25 | 35.62382 | 137.12976 | 22122 ft | 422 kts | 18° |
| 2026-04-28 06:25 | 35.65030 | 137.14572 | 22518 ft | 425 kts | 17° |
| 2026-04-28 06:25 | 35.67695 | 137.16179 | 22884 ft | 428 kts | 17° |
| 2026-04-28 06:25 | 35.70382 | 137.17801 | 23217 ft | 432 kts | 17° |
| 2026-04-28 06:26 | 35.73085 | 137.19434 | 23547 ft | 436 kts | 17° |
| 2026-04-28 06:26 | 35.75847 | 137.21103 | 23876 ft | 439 kts | 17° |
| 2026-04-28 06:26 | 35.78581 | 137.22759 | 24204 ft | 442 kts | 17° |
| 2026-04-28 06:26 | 35.81329 | 137.24422 | 24532 ft | 444 kts | 17° |
| 2026-04-28 06:27 | 35.84121 | 137.26115 | 24873 ft | 447 kts | 17° |
| 2026-04-28 06:27 | 35.86903 | 137.27805 | 25219 ft | 450 kts | 17° |
| 2026-04-28 06:27 | 35.89740 | 137.29529 | 25572 ft | 452 kts | 17° |
| 2026-04-28 06:27 | 35.92557 | 137.31241 | 25914 ft | 455 kts | 17° |
| 2026-04-28 06:28 | 35.95393 | 137.32965 | 26258 ft | 457 kts | 17° |
| 2026-04-28 06:28 | 35.98269 | 137.34717 | 26635 ft | 458 kts | 16° |
| 2026-04-28 06:28 | 36.01105 | 137.36446 | 27020 ft | 459 kts | 16° |
| 2026-04-28 06:28 | 36.03973 | 137.38196 | 27413 ft | 459 kts | 16° |
| 2026-04-28 06:29 | 36.06854 | 137.39955 | 27786 ft | 460 kts | 15° |
| 2026-04-28 06:29 | 36.09695 | 137.41693 | 28120 ft | 462 kts | 15° |
| 2026-04-28 06:29 | 36.12620 | 137.43483 | 28439 ft | 464 kts | 14° |
| 2026-04-28 06:29 | 36.15494 | 137.45242 | 28762 ft | 466 kts | 14° |
| 2026-04-28 06:30 | 36.18428 | 137.47052 | 29122 ft | 468 kts | 13° |
| 2026-04-28 06:30 | 36.21335 | 137.48833 | 29455 ft | 469 kts | 13° |
| 2026-04-28 06:30 | 36.24265 | 137.50612 | 29769 ft | 472 kts | 13° |
| 2026-04-28 06:30 | 36.27233 | 137.52420 | 30092 ft | 474 kts | 13° |
| 2026-04-28 06:31 | 36.30169 | 137.54216 | 30430 ft | 475 kts | 13° |
| 2026-04-28 06:31 | 36.33140 | 137.56041 | 30844 ft | 474 kts | 13° |
| 2026-04-28 06:31 | 36.36098 | 137.57863 | 31257 ft | 473 kts | 13° |
| 2026-04-28 06:31 | 36.39020 | 137.59663 | 31603 ft | 473 kts | 13° |
| 2026-04-28 06:32 | 36.41986 | 137.61491 | 31928 ft | 475 kts | 13° |
| 2026-04-28 06:32 | 36.44917 | 137.63298 | 32249 ft | 476 kts | 13° |
| 2026-04-28 06:32 | 36.47895 | 137.65138 | 32581 ft | 477 kts | 14° |
| 2026-04-28 06:32 | 36.50885 | 137.66986 | 32790 ft | 479 kts | 14° |
| 2026-04-28 06:33 | 36.53860 | 137.68835 | 32808 ft | 481 kts | 15° |
| 2026-04-28 06:33 | 36.57803 | 137.71594 | 32707 ft | 487 kts | 19° |
| 2026-04-28 06:33 | 36.60294 | 137.73502 | 32559 ft | 487 kts | 20° |
| 2026-04-28 06:34 | 36.63152 | 137.75732 | 32268 ft | 487 kts | 20° |
| 2026-04-28 06:34 | 36.66017 | 137.77982 | 31870 ft | 485 kts | 20° |
| 2026-04-28 06:34 | 36.68877 | 137.80222 | 31637 ft | 485 kts | 20° |
| 2026-04-28 06:34 | 36.71727 | 137.82448 | 31528 ft | 486 kts | 20° |
| 2026-04-28 06:35 | 36.74623 | 137.84708 | 31481 ft | 487 kts | 20° |
| 2026-04-28 06:35 | 36.80361 | 137.89197 | 31833 ft | 484 kts | 20° |
| 2026-04-28 06:35 | 36.83158 | 137.91394 | 32180 ft | 479 kts | 20° |
| 2026-04-28 06:36 | 36.85978 | 137.93608 | 32475 ft | 476 kts | 20° |
| 2026-04-28 06:36 | 36.88793 | 137.95811 | 32786 ft | 478 kts | 19° |
| 2026-04-28 06:36 | 36.91609 | 137.98007 | 32927 ft | 484 kts | 19° |
| 2026-04-28 06:37 | 36.97327 | 138.02481 | 32996 ft | 485 kts | 20° |
| 2026-04-28 06:37 | 37.03046 | 138.06979 | 32907 ft | 484 kts | 20° |
| 2026-04-28 06:38 | 37.08776 | 138.11490 | 32884 ft | 484 kts | 19° |
| 2026-04-28 06:38 | 37.14488 | 138.15994 | 32843 ft | 485 kts | 19° |
| 2026-04-28 06:39 | 37.20210 | 138.20512 | 32834 ft | 485 kts | 19° |
| 2026-04-28 06:39 | 37.25898 | 138.25011 | 32855 ft | 486 kts | 19° |
| 2026-04-28 06:40 | 37.31612 | 138.29540 | 32870 ft | 486 kts | 19° |
| 2026-04-28 06:40 | 37.37302 | 138.34058 | 32879 ft | 485 kts | 19° |
| 2026-04-28 06:41 | 37.43001 | 138.38591 | 32880 ft | 485 kts | 19° |
| 2026-04-28 06:41 | 37.48685 | 138.43118 | 32877 ft | 485 kts | 19° |
| 2026-04-28 06:42 | 37.54416 | 138.47688 | 32876 ft | 486 kts | 19° |
| 2026-04-28 06:42 | 37.60132 | 138.52261 | 32875 ft | 486 kts | 18° |
| 2026-04-28 06:43 | 37.65735 | 138.56752 | 32874 ft | 485 kts | 18° |
| 2026-04-28 06:43 | 37.71431 | 138.61322 | 32873 ft | 485 kts | 18° |
| 2026-04-28 06:44 | 37.77108 | 138.65886 | 32869 ft | 485 kts | 19° |
| 2026-04-28 06:44 | 37.82857 | 138.70514 | 32872 ft | 486 kts | 19° |
| 2026-04-28 06:45 | 37.88570 | 138.75125 | 32873 ft | 486 kts | 19° |
| 2026-04-28 06:45 | 37.94245 | 138.79715 | 32874 ft | 486 kts | 19° |
| 2026-04-28 06:46 | 37.99929 | 138.84319 | 32875 ft | 486 kts | 19° |
| 2026-04-28 06:46 | 38.05613 | 138.88933 | 32875 ft | 486 kts | 19° |
| 2026-04-28 06:47 | 38.11326 | 138.93578 | 32877 ft | 486 kts | 19° |
| 2026-04-28 06:47 | 38.16998 | 138.98198 | 32894 ft | 487 kts | 19° |
| 2026-04-28 06:48 | 38.22725 | 139.02869 | 32896 ft | 490 kts | 18° |
| 2026-04-28 06:48 | 38.28453 | 139.07547 | 32880 ft | 490 kts | 18° |
| 2026-04-28 06:49 | 38.34148 | 139.12209 | 32876 ft | 490 kts | 18° |
| 2026-04-28 06:49 | 38.39865 | 139.16899 | 32877 ft | 490 kts | 18° |
| 2026-04-28 06:50 | 38.45616 | 139.21626 | 32879 ft | 490 kts | 18° |
| 2026-04-28 06:50 | 38.51302 | 139.26309 | 32880 ft | 490 kts | 18° |
| 2026-04-28 06:51 | 38.57034 | 139.31038 | 32879 ft | 492 kts | 18° |
| 2026-04-28 06:51 | 38.62775 | 139.35785 | 32879 ft | 492 kts | 18° |
| 2026-04-28 06:52 | 38.68513 | 139.40541 | 32881 ft | 492 kts | 18° |
| 2026-04-28 06:52 | 38.74274 | 139.45322 | 32885 ft | 492 kts | 18° |
| 2026-04-28 06:53 | 38.79998 | 139.50082 | 32888 ft | 492 kts | 18° |
| 2026-04-28 06:53 | 38.85739 | 139.54868 | 32892 ft | 492 kts | 18° |
| 2026-04-28 06:54 | 38.91463 | 139.59645 | 32895 ft | 492 kts | 18° |
| 2026-04-28 06:54 | 38.97201 | 139.64447 | 32898 ft | 493 kts | 18° |
| 2026-04-28 06:55 | 39.03007 | 139.69032 | 32899 ft | 485 kts | 13° |
| 2026-04-28 06:55 | 39.09042 | 139.72636 | 32904 ft | 473 kts | 6° |
| 2026-04-28 06:56 | 39.15116 | 139.75845 | 32904 ft | 474 kts | 5° |
| 2026-04-28 06:56 | 39.21242 | 139.79108 | 32903 ft | 475 kts | 6° |
| 2026-04-28 06:57 | 39.27311 | 139.82376 | 32902 ft | 476 kts | 5° |
| 2026-04-28 06:57 | 39.33430 | 139.85686 | 32898 ft | 477 kts | 5° |
| 2026-04-28 06:58 | 39.39525 | 139.88988 | 32894 ft | 478 kts | 5° |
| 2026-04-28 06:58 | 39.45681 | 139.92333 | 32894 ft | 478 kts | 5° |
| 2026-04-28 06:59 | 39.51800 | 139.95665 | 32897 ft | 479 kts | 5° |
| 2026-04-28 06:59 | 39.57944 | 139.99016 | 32901 ft | 479 kts | 5° |
| 2026-04-28 07:00 | 39.64078 | 140.02367 | 32904 ft | 479 kts | 5° |
| 2026-04-28 07:00 | 39.70172 | 140.06038 | 32905 ft | 495 kts | 12° |
| 2026-04-28 07:00 | 39.73157 | 140.08307 | 32905 ft | 506 kts | 17° |
| 2026-04-28 07:01 | 39.76096 | 140.10928 | 32906 ft | 516 kts | 21° |
| 2026-04-28 07:01 | 39.81815 | 140.16603 | 32904 ft | 520 kts | 23° |
| 2026-04-28 07:02 | 39.87489 | 140.22314 | 32901 ft | 514 kts | 22° |
| 2026-04-28 07:02 | 39.93152 | 140.27945 | 32745 ft | 511 kts | 22° |
| 2026-04-28 07:02 | 39.95977 | 140.30737 | 32096 ft | 518 kts | 22° |
| 2026-04-28 07:03 | 39.98898 | 140.33611 | 31338 ft | 526 kts | 22° |
| 2026-04-28 07:03 | 40.01798 | 140.36482 | 30709 ft | 527 kts | 23° |
| 2026-04-28 07:03 | 40.04715 | 140.39391 | 30142 ft | 525 kts | 23° |
| 2026-04-28 07:03 | 40.07595 | 140.42261 | 29582 ft | 524 kts | 23° |
| 2026-04-28 07:04 | 40.10485 | 140.45145 | 29014 ft | 524 kts | 23° |
| 2026-04-28 07:04 | 40.13399 | 140.48055 | 28484 ft | 520 kts | 24° |
| 2026-04-28 07:04 | 40.16256 | 140.50909 | 28062 ft | 514 kts | 24° |
| 2026-04-28 07:04 | 40.19046 | 140.53697 | 27621 ft | 508 kts | 25° |
| 2026-04-28 07:05 | 40.21845 | 140.56499 | 27170 ft | 503 kts | 25° |
| 2026-04-28 07:05 | 40.24617 | 140.59283 | 26740 ft | 498 kts | 25° |
| 2026-04-28 07:05 | 40.27341 | 140.61954 | 26292 ft | 488 kts | 21° |
| 2026-04-28 07:05 | 40.30275 | 140.63888 | 25817 ft | 454 kts | 3° |
| 2026-04-28 07:06 | 40.33213 | 140.64720 | 25373 ft | 424 kts | 351° |
| 2026-04-28 07:06 | 40.36116 | 140.65105 | 24875 ft | 416 kts | 349° |
| 2026-04-28 07:06 | 40.39008 | 140.65425 | 24314 ft | 415 kts | 350° |
| 2026-04-28 07:06 | 40.41853 | 140.65781 | 23787 ft | 414 kts | 351° |
| 2026-04-28 07:07 | 40.44727 | 140.66176 | 23264 ft | 412 kts | 352° |
| 2026-04-28 07:07 | 40.47558 | 140.66591 | 22730 ft | 409 kts | 352° |
| 2026-04-28 07:07 | 40.50375 | 140.67012 | 22206 ft | 406 kts | 353° |
| 2026-04-28 07:07 | 40.53173 | 140.67432 | 21687 ft | 403 kts | 353° |
| 2026-04-28 07:08 | 40.55936 | 140.67842 | 21177 ft | 401 kts | 354° |
| 2026-04-28 07:08 | 40.58681 | 140.68254 | 20678 ft | 398 kts | 354° |
| 2026-04-28 07:08 | 40.61441 | 140.68671 | 20176 ft | 396 kts | 355° |
| 2026-04-28 07:08 | 40.64171 | 140.69081 | 19684 ft | 394 kts | 355° |
| 2026-04-28 07:09 | 40.66873 | 140.69487 | 19202 ft | 391 kts | 355° |
| 2026-04-28 07:09 | 40.69585 | 140.69894 | 18725 ft | 389 kts | 356° |
| 2026-04-28 07:09 | 40.72264 | 140.70297 | 18262 ft | 386 kts | 356° |
| 2026-04-28 07:09 | 40.74901 | 140.70685 | 17810 ft | 383 kts | 356° |
| 2026-04-28 07:10 | 40.77557 | 140.71016 | 17348 ft | 379 kts | 355° |
| 2026-04-28 07:10 | 40.80153 | 140.71323 | 16893 ft | 377 kts | 355° |
| 2026-04-28 07:10 | 40.82772 | 140.71631 | 16435 ft | 374 kts | 355° |
| 2026-04-28 07:10 | 40.85335 | 140.71935 | 15989 ft | 372 kts | 356° |
| 2026-04-28 07:11 | 40.87919 | 140.72244 | 15538 ft | 370 kts | 356° |
| 2026-04-28 07:11 | 40.90450 | 140.72551 | 15098 ft | 367 kts | 356° |
| 2026-04-28 07:11 | 40.92997 | 140.72861 | 14648 ft | 363 kts | 356° |
| 2026-04-28 07:11 | 40.95493 | 140.73164 | 14187 ft | 361 kts | 356° |
| 2026-04-28 07:12 | 40.97893 | 140.73456 | 13749 ft | 359 kts | 356° |
| 2026-04-28 07:12 | 41.00344 | 140.73758 | 13305 ft | 356 kts | 356° |
| 2026-04-28 07:12 | 41.02819 | 140.74060 | 12873 ft | 353 kts | 356° |
| 2026-04-28 07:12 | 41.05241 | 140.74353 | 12441 ft | 350 kts | 356° |
| 2026-04-28 07:13 | 41.07628 | 140.74648 | 12000 ft | 346 kts | 356° |
| 2026-04-28 07:13 | 41.10029 | 140.74940 | 11553 ft | 344 kts | 356° |
| 2026-04-28 07:13 | 41.12414 | 140.75230 | 11111 ft | 340 kts | 356° |
| 2026-04-28 07:13 | 41.14758 | 140.75519 | 10703 ft | 334 kts | 356° |
| 2026-04-28 07:14 | 41.17019 | 140.75803 | 10236 ft | 323 kts | 356° |
| 2026-04-28 07:14 | 41.19232 | 140.76076 | 9744 ft | 312 kts | 356° |
| 2026-04-28 07:14 | 41.21349 | 140.76326 | 9328 ft | 304 kts | 357° |
| 2026-04-28 07:14 | 41.23442 | 140.76572 | 9046 ft | 298 kts | 358° |
| 2026-04-28 07:15 | 41.25468 | 140.76817 | 8743 ft | 293 kts | 358° |
| 2026-04-28 07:15 | 41.27504 | 140.77060 | 8437 ft | 289 kts | 359° |
| 2026-04-28 07:15 | 41.29475 | 140.77296 | 8133 ft | 286 kts | 360° |
| 2026-04-28 07:15 | 41.31309 | 140.77521 | 7840 ft | 283 kts | 0° |
| 2026-04-28 07:16 | 41.33269 | 140.77759 | 7533 ft | 281 kts | 1° |
| 2026-04-28 07:16 | 41.35212 | 140.78005 | 7217 ft | 280 kts | 1° |
| 2026-04-28 07:16 | 41.37148 | 140.78242 | 6901 ft | 279 kts | 1° |
| 2026-04-28 07:16 | 41.39082 | 140.78481 | 6568 ft | 279 kts | 1° |
| 2026-04-28 07:17 | 41.41021 | 140.78720 | 6237 ft | 277 kts | 2° |
| 2026-04-28 07:17 | 41.42914 | 140.78963 | 6007 ft | 271 kts | 3° |
| 2026-04-28 07:17 | 41.44750 | 140.79408 | 5961 ft | 262 kts | 11° |
| 2026-04-28 07:17 | 41.46463 | 140.80118 | 5687 ft | 259 kts | 15° |
| 2026-04-28 07:18 | 41.48158 | 140.80905 | 5417 ft | 257 kts | 16° |
| 2026-04-28 07:18 | 41.49844 | 140.81700 | 5180 ft | 252 kts | 15° |
| 2026-04-28 07:18 | 41.51482 | 140.82466 | 4946 ft | 248 kts | 15° |
| 2026-04-28 07:18 | 41.53102 | 140.83231 | 4731 ft | 244 kts | 16° |
| 2026-04-28 07:19 | 41.54689 | 140.83968 | 4509 ft | 243 kts | 16° |
| 2026-04-28 07:19 | 41.56282 | 140.84711 | 4299 ft | 239 kts | 15° |
| 2026-04-28 07:19 | 41.57784 | 140.85416 | 4080 ft | 223 kts | 15° |
| 2026-04-28 07:19 | 41.59217 | 140.86087 | 3887 ft | 209 kts | 15° |
| 2026-04-28 07:20 | 41.60547 | 140.86713 | 3700 ft | 200 kts | 15° |
| 2026-04-28 07:20 | 41.61845 | 140.87309 | 3589 ft | 190 kts | 15° |
| 2026-04-28 07:20 | 41.63061 | 140.87882 | 3378 ft | 179 kts | 14° |
| 2026-04-28 07:20 | 41.64199 | 140.88415 | 3170 ft | 168 kts | 14° |
| 2026-04-28 07:21 | 41.65260 | 140.88910 | 2993 ft | 156 kts | 14° |
| 2026-04-28 07:21 | 41.66260 | 140.89377 | 2839 ft | 148 kts | 13° |
| 2026-04-28 07:21 | 41.67227 | 140.89812 | 2726 ft | 146 kts | 14° |
| 2026-04-28 07:22 | 41.69125 | 140.90704 | 2301 ft | 144 kts | 13° |
| 2026-04-28 07:22 | 41.70060 | 140.91154 | 2085 ft | 142 kts | 12° |
| 2026-04-28 07:22 | 41.70992 | 140.91502 | 1892 ft | 134 kts | 4° |
| 2026-04-28 07:22 | 41.71886 | 140.91577 | 1698 ft | 125 kts | 352° |
| 2026-04-28 07:23 | 41.72737 | 140.91403 | 1546 ft | 125 kts | 341° |
| 2026-04-28 07:23 | 41.73554 | 140.90994 | 1381 ft | 125 kts | 330° |
| 2026-04-28 07:23 | 41.74287 | 140.90375 | 1215 ft | 125 kts | 320° |
| 2026-04-28 07:23 | 41.74910 | 140.89565 | 1048 ft | 125 kts | 308° |
| 2026-04-28 07:24 | 41.75399 | 140.88591 | 880 ft | 125 kts | 297° |
| 2026-04-28 07:24 | 41.75728 | 140.87520 | 720 ft | 125 kts | 289° |
| 2026-04-28 07:24 | 41.76000 | 140.86423 | 561 ft | 125 kts | 288° |
| 2026-04-28 07:24 | 41.76266 | 140.85288 | 406 ft | 131 kts | 287° |
| 2026-04-28 07:25 | 41.76550 | 140.84123 | 246 ft | 129 kts | 288° |
| 2026-04-28 07:25 | 41.76824 | 140.83005 | 135 ft | 118 kts | 288° |
| 2026-04-28 07:25 | 41.77022 | 140.82179 | 117 ft | 68 kts | 287° |
| 2026-04-28 07:25 | 41.77120 | 140.81782 | 112 ft | 28 kts | 289° |
| 2026-04-28 07:26 | 41.77181 | 140.81656 | 115 ft | 13 kts | 347° |
| 2026-04-28 07:26 | 41.77249 | 140.81671 | 123 ft | 5 kts | 19° |
| 2026-04-28 07:26 | 41.77288 | 140.81680 | 128 ft | 9 kts | 351° |
| 2026-04-28 07:26 | 41.77332 | 140.81621 | 131 ft | 9 kts | 291° |
| 2026-04-28 07:27 | 41.77358 | 140.81517 | 125 ft | 15 kts | 288° |
| 2026-04-28 07:27 | 41.77390 | 140.81383 | 114 ft | 10 kts | 288° |
| 2026-04-28 07:27 | 41.77416 | 140.81316 | 110 ft | 7 kts | 348° |
| 2026-04-28 07:27 | 41.77459 | 140.81334 | 113 ft | 4 kts | 18° |
| 2026-04-28 07:28 | 41.77482 | 140.81345 | 114 ft | 4 kts | 18° |
| 2026-04-28 07:28 | 41.77521 | 140.81360 | 116 ft | 5 kts | 17° |
| 2026-04-28 07:28 | 41.77542 | 140.81369 | 117 ft | 0 kts | 18° |